sensor_id;sensor_type;location;lat;lon;timestamp;P1;durP1;ratioP1;P2;durP2;ratioP2
75499;SDS011;64076;51.466;7.260;2024-01-30T00:01:10;7.80;;;6.47;;
75499;SDS011;64076;51.466;7.260;2024-01-30T00:03:36;8.23;;;6.73;;
75499;SDS011;64076;51.466;7.260;2024-01-30T00:06:02;7.03;;;6.32;;
75499;SDS011;64076;51.466;7.260;2024-01-30T00:08:28;6.95;;;6.20;;
75499;SDS011;64076;51.466;7.260;2024-01-30T00:10:54;7.10;;;6.40;;
75499;SDS011;64076;51.466;7.260;2024-01-30T00:13:20;7.25;;;6.53;;
75499;SDS011;64076;51.466;7.260;2024-01-30T00:15:45;8.17;;;6.60;;
75499;SDS011;64076;51.466;7.260;2024-01-30T00:18:11;7.95;;;6.80;;
75499;SDS011;64076;51.466;7.260;2024-01-30T00:20:37;8.73;;;6.77;;
75499;SDS011;64076;51.466;7.260;2024-01-30T00:23:02;7.70;;;6.90;;
75499;SDS011;64076;51.466;7.260;2024-01-30T00:25:28;7.88;;;6.80;;
75499;SDS011;64076;51.466;7.260;2024-01-30T00:27:53;7.43;;;6.73;;
75499;SDS011;64076;51.466;7.260;2024-01-30T00:30:20;7.13;;;6.43;;
75499;SDS011;64076;51.466;7.260;2024-01-30T00:32:45;8.00;;;7.15;;
75499;SDS011;64076;51.466;7.260;2024-01-30T00:35:11;8.15;;;6.75;;
75499;SDS011;64076;51.466;7.260;2024-01-30T00:37:37;7.67;;;6.67;;
75499;SDS011;64076;51.466;7.260;2024-01-30T00:40:02;7.70;;;6.70;;
75499;SDS011;64076;51.466;7.260;2024-01-30T00:42:28;7.60;;;6.80;;
75499;SDS011;64076;51.466;7.260;2024-01-30T00:44:54;7.70;;;6.90;;
75499;SDS011;64076;51.466;7.260;2024-01-30T00:47:19;7.77;;;6.97;;
75499;SDS011;64076;51.466;7.260;2024-01-30T00:49:45;8.50;;;6.67;;
75499;SDS011;64076;51.466;7.260;2024-01-30T00:52:11;8.00;;;6.88;;
75499;SDS011;64076;51.466;7.260;2024-01-30T00:54:36;8.40;;;7.03;;
75499;SDS011;64076;51.466;7.260;2024-01-30T00:57:02;7.78;;;6.97;;
75499;SDS011;64076;51.466;7.260;2024-01-30T00:59:28;8.00;;;7.20;;
75499;SDS011;64076;51.466;7.260;2024-01-30T01:01:53;7.88;;;7.07;;
75499;SDS011;64076;51.466;7.260;2024-01-30T01:04:19;8.50;;;7.03;;
75499;SDS011;64076;51.466;7.260;2024-01-30T01:06:46;7.35;;;6.65;;
75499;SDS011;64076;51.466;7.260;2024-01-30T01:09:12;8.40;;;7.37;;
75499;SDS011;64076;51.466;7.260;2024-01-30T01:11:37;8.38;;;7.00;;
75499;SDS011;64076;51.466;7.260;2024-01-30T01:14:03;8.23;;;7.43;;
75499;SDS011;64076;51.466;7.260;2024-01-30T01:16:29;7.63;;;6.82;;
75499;SDS011;64076;51.466;7.260;2024-01-30T01:18:55;8.50;;;7.60;;
75499;SDS011;64076;51.466;7.260;2024-01-30T01:21:21;8.73;;;7.60;;
75499;SDS011;64076;51.466;7.260;2024-01-30T01:23:46;8.05;;;7.13;;
75499;SDS011;64076;51.466;7.260;2024-01-30T01:26:12;8.50;;;7.23;;
75499;SDS011;64076;51.466;7.260;2024-01-30T01:28:39;7.97;;;7.18;;
75499;SDS011;64076;51.466;7.260;2024-01-30T01:31:05;8.03;;;7.13;;
75499;SDS011;64076;51.466;7.260;2024-01-30T01:33:31;8.35;;;7.55;;
75499;SDS011;64076;51.466;7.260;2024-01-30T01:35:58;7.43;;;6.73;;
75499;SDS011;64076;51.466;7.260;2024-01-30T01:38:24;8.18;;;7.38;;
75499;SDS011;64076;51.466;7.260;2024-01-30T01:40:50;8.30;;;7.50;;
75499;SDS011;64076;51.466;7.260;2024-01-30T01:43:16;7.80;;;7.00;;
75499;SDS011;64076;51.466;7.260;2024-01-30T01:45:41;8.20;;;7.40;;
75499;SDS011;64076;51.466;7.260;2024-01-30T01:48:07;8.33;;;7.53;;
75499;SDS011;64076;51.466;7.260;2024-01-30T01:50:34;8.57;;;7.30;;
75499;SDS011;64076;51.466;7.260;2024-01-30T01:53:00;8.27;;;7.47;;
75499;SDS011;64076;51.466;7.260;2024-01-30T01:55:27;8.45;;;7.55;;
75499;SDS011;64076;51.466;7.260;2024-01-30T01:57:55;9.30;;;7.32;;
75499;SDS011;64076;51.466;7.260;2024-01-30T02:00:21;8.97;;;8.07;;
75499;SDS011;64076;51.466;7.260;2024-01-30T02:02:47;8.60;;;7.70;;
75499;SDS011;64076;51.466;7.260;2024-01-30T02:05:12;8.87;;;7.97;;
75499;SDS011;64076;51.466;7.260;2024-01-30T02:07:39;9.03;;;8.10;;
75499;SDS011;64076;51.466;7.260;2024-01-30T02:10:05;9.02;;;8.00;;
75499;SDS011;64076;51.466;7.260;2024-01-30T02:12:32;8.90;;;8.00;;
75499;SDS011;64076;51.466;7.260;2024-01-30T02:14:58;8.63;;;7.50;;
75499;SDS011;64076;51.466;7.260;2024-01-30T02:17:23;9.27;;;7.70;;
75499;SDS011;64076;51.466;7.260;2024-01-30T02:19:49;9.17;;;7.70;;
75499;SDS011;64076;51.466;7.260;2024-01-30T02:22:15;9.27;;;8.18;;
75499;SDS011;64076;51.466;7.260;2024-01-30T02:24:40;8.37;;;7.47;;
75499;SDS011;64076;51.466;7.260;2024-01-30T02:27:06;8.68;;;7.82;;
75499;SDS011;64076;51.466;7.260;2024-01-30T02:29:31;9.27;;;7.87;;
75499;SDS011;64076;51.466;7.260;2024-01-30T02:31:57;8.87;;;7.97;;
75499;SDS011;64076;51.466;7.260;2024-01-30T02:34:23;9.02;;;8.13;;
75499;SDS011;64076;51.466;7.260;2024-01-30T02:36:49;8.87;;;7.87;;
75499;SDS011;64076;51.466;7.260;2024-01-30T02:39:15;9.18;;;8.27;;
75499;SDS011;64076;51.466;7.260;2024-01-30T02:41:40;9.37;;;8.47;;
75499;SDS011;64076;51.466;7.260;2024-01-30T02:44:06;9.07;;;8.17;;
75499;SDS011;64076;51.466;7.260;2024-01-30T02:46:31;9.95;;;8.23;;
75499;SDS011;64076;51.466;7.260;2024-01-30T02:48:57;9.23;;;7.90;;
75499;SDS011;64076;51.466;7.260;2024-01-30T02:51:22;8.63;;;7.73;;
75499;SDS011;64076;51.466;7.260;2024-01-30T02:53:48;8.30;;;7.50;;
75499;SDS011;64076;51.466;7.260;2024-01-30T02:56:13;9.20;;;8.30;;
75499;SDS011;64076;51.466;7.260;2024-01-30T02:58:40;8.82;;;7.93;;
75499;SDS011;64076;51.466;7.260;2024-01-30T03:01:06;9.30;;;8.13;;
75499;SDS011;64076;51.466;7.260;2024-01-30T03:03:32;9.50;;;8.50;;
75499;SDS011;64076;51.466;7.260;2024-01-30T03:05:59;8.88;;;7.97;;
75499;SDS011;64076;51.466;7.260;2024-01-30T03:08:24;9.03;;;8.13;;
75499;SDS011;64076;51.466;7.260;2024-01-30T03:10:50;9.38;;;8.00;;
75499;SDS011;64076;51.466;7.260;2024-01-30T03:13:15;9.03;;;8.13;;
75499;SDS011;64076;51.466;7.260;2024-01-30T03:15:41;9.87;;;8.17;;
75499;SDS011;64076;51.466;7.260;2024-01-30T03:18:06;9.60;;;8.13;;
75499;SDS011;64076;51.466;7.260;2024-01-30T03:20:32;9.13;;;8.10;;
75499;SDS011;64076;51.466;7.260;2024-01-30T03:22:59;9.07;;;8.18;;
75499;SDS011;64076;51.466;7.260;2024-01-30T03:25:25;9.38;;;8.43;;
75499;SDS011;64076;51.466;7.260;2024-01-30T03:27:50;9.20;;;8.20;;
75499;SDS011;64076;51.466;7.260;2024-01-30T03:30:16;9.10;;;8.10;;
75499;SDS011;64076;51.466;7.260;2024-01-30T03:32:42;9.35;;;8.35;;
75499;SDS011;64076;51.466;7.260;2024-01-30T03:35:08;9.13;;;8.32;;
75499;SDS011;64076;51.466;7.260;2024-01-30T03:37:34;9.10;;;8.20;;
75499;SDS011;64076;51.466;7.260;2024-01-30T03:39:59;9.90;;;8.07;;
75499;SDS011;64076;51.466;7.260;2024-01-30T03:42:25;9.57;;;8.47;;
75499;SDS011;64076;51.466;7.260;2024-01-30T03:44:50;9.60;;;8.60;;
75499;SDS011;64076;51.466;7.260;2024-01-30T03:47:20;10.70;;;8.80;;
75499;SDS011;64076;51.466;7.260;2024-01-30T03:49:46;9.25;;;8.30;;
75499;SDS011;64076;51.466;7.260;2024-01-30T03:52:11;9.23;;;8.33;;
75499;SDS011;64076;51.466;7.260;2024-01-30T03:54:37;9.82;;;8.82;;
75499;SDS011;64076;51.466;7.260;2024-01-30T03:57:02;9.20;;;8.17;;
75499;SDS011;64076;51.466;7.260;2024-01-30T03:59:28;8.80;;;7.95;;
75499;SDS011;64076;51.466;7.260;2024-01-30T04:01:54;9.87;;;8.73;;
75499;SDS011;64076;51.466;7.260;2024-01-30T04:04:19;9.48;;;8.48;;
75499;SDS011;64076;51.466;7.260;2024-01-30T04:06:45;9.53;;;8.53;;
75499;SDS011;64076;51.466;7.260;2024-01-30T04:09:12;10.10;;;8.23;;
75499;SDS011;64076;51.466;7.260;2024-01-30T04:11:38;9.40;;;8.50;;
75499;SDS011;64076;51.466;7.260;2024-01-30T04:14:04;9.20;;;8.30;;
75499;SDS011;64076;51.466;7.260;2024-01-30T04:16:30;9.57;;;8.57;;
75499;SDS011;64076;51.466;7.260;2024-01-30T04:18:55;9.63;;;8.63;;
75499;SDS011;64076;51.466;7.260;2024-01-30T04:21:21;9.23;;;8.17;;
75499;SDS011;64076;51.466;7.260;2024-01-30T04:23:47;9.30;;;8.40;;
75499;SDS011;64076;51.466;7.260;2024-01-30T04:26:13;9.30;;;8.40;;
75499;SDS011;64076;51.466;7.260;2024-01-30T04:28:41;9.75;;;8.43;;
75499;SDS011;64076;51.466;7.260;2024-01-30T04:31:06;9.43;;;8.52;;
75499;SDS011;64076;51.466;7.260;2024-01-30T04:33:32;9.37;;;8.43;;
75499;SDS011;64076;51.466;7.260;2024-01-30T04:35:58;10.13;;;9.07;;
75499;SDS011;64076;51.466;7.260;2024-01-30T04:38:23;10.47;;;8.50;;
75499;SDS011;64076;51.466;7.260;2024-01-30T04:40:49;9.30;;;8.30;;
75499;SDS011;64076;51.466;7.260;2024-01-30T04:43:14;9.60;;;8.60;;
75499;SDS011;64076;51.466;7.260;2024-01-30T04:45:40;9.70;;;8.70;;
75499;SDS011;64076;51.466;7.260;2024-01-30T04:48:06;9.95;;;8.95;;
75499;SDS011;64076;51.466;7.260;2024-01-30T04:50:32;9.32;;;8.30;;
75499;SDS011;64076;51.466;7.260;2024-01-30T04:52:57;9.40;;;8.03;;
75499;SDS011;64076;51.466;7.260;2024-01-30T04:55:23;9.10;;;8.17;;
75499;SDS011;64076;51.466;7.260;2024-01-30T04:57:49;8.73;;;7.93;;
75499;SDS011;64076;51.466;7.260;2024-01-30T05:00:14;9.30;;;8.27;;
75499;SDS011;64076;51.466;7.260;2024-01-30T05:02:40;9.20;;;8.15;;
75499;SDS011;64076;51.466;7.260;2024-01-30T05:05:06;8.93;;;8.03;;
75499;SDS011;64076;51.466;7.260;2024-01-30T05:07:35;9.70;;;8.70;;
75499;SDS011;64076;51.466;7.260;2024-01-30T05:10:01;9.38;;;8.38;;
75499;SDS011;64076;51.466;7.260;2024-01-30T05:12:26;9.23;;;8.33;;
75499;SDS011;64076;51.466;7.260;2024-01-30T05:14:52;8.98;;;8.07;;
75499;SDS011;64076;51.466;7.260;2024-01-30T05:17:17;9.37;;;8.47;;
75499;SDS011;64076;51.466;7.260;2024-01-30T05:19:43;9.50;;;8.50;;
75499;SDS011;64076;51.466;7.260;2024-01-30T05:22:09;9.25;;;8.30;;
75499;SDS011;64076;51.466;7.260;2024-01-30T05:24:35;9.60;;;8.47;;
75499;SDS011;64076;51.466;7.260;2024-01-30T05:27:02;10.05;;;8.63;;
75499;SDS011;64076;51.466;7.260;2024-01-30T05:29:27;9.37;;;8.47;;
75499;SDS011;64076;51.466;7.260;2024-01-30T05:31:53;9.00;;;8.07;;
75499;SDS011;64076;51.466;7.260;2024-01-30T05:34:18;9.53;;;8.57;;
75499;SDS011;64076;51.466;7.260;2024-01-30T05:36:44;9.67;;;8.53;;
75499;SDS011;64076;51.466;7.260;2024-01-30T05:39:09;9.48;;;8.57;;
75499;SDS011;64076;51.466;7.260;2024-01-30T05:41:35;9.27;;;8.37;;
75499;SDS011;64076;51.466;7.260;2024-01-30T05:44:01;9.35;;;8.25;;
75499;SDS011;64076;51.466;7.260;2024-01-30T05:46:26;8.90;;;8.00;;
75499;SDS011;64076;51.466;7.260;2024-01-30T05:48:52;9.77;;;8.77;;
75499;SDS011;64076;51.466;7.260;2024-01-30T05:51:17;10.47;;;8.70;;
75499;SDS011;64076;51.466;7.260;2024-01-30T05:53:43;11.33;;;8.43;;
75499;SDS011;64076;51.466;7.260;2024-01-30T05:56:08;9.20;;;8.10;;
75499;SDS011;64076;51.466;7.260;2024-01-30T05:58:34;9.63;;;8.57;;
75499;SDS011;64076;51.466;7.260;2024-01-30T06:01:00;8.50;;;7.60;;
75499;SDS011;64076;51.466;7.260;2024-01-30T06:03:25;9.00;;;7.90;;
75499;SDS011;64076;51.466;7.260;2024-01-30T06:05:51;10.00;;;9.00;;
75499;SDS011;64076;51.466;7.260;2024-01-30T06:08:17;9.95;;;8.95;;
75499;SDS011;64076;51.466;7.260;2024-01-30T06:10:43;8.90;;;7.90;;
75499;SDS011;64076;51.466;7.260;2024-01-30T06:13:08;9.03;;;8.10;;
75499;SDS011;64076;51.466;7.260;2024-01-30T06:15:34;9.40;;;8.40;;
75499;SDS011;64076;51.466;7.260;2024-01-30T06:17:59;8.15;;;7.20;;
75499;SDS011;64076;51.466;7.260;2024-01-30T06:20:25;7.70;;;6.90;;
75499;SDS011;64076;51.466;7.260;2024-01-30T06:22:50;7.00;;;6.30;;
75499;SDS011;64076;51.466;7.260;2024-01-30T06:25:16;7.18;;;6.47;;
75499;SDS011;64076;51.466;7.260;2024-01-30T06:27:42;7.93;;;6.07;;
75499;SDS011;64076;51.466;7.260;2024-01-30T06:30:07;6.22;;;5.60;;
75499;SDS011;64076;51.466;7.260;2024-01-30T06:32:34;7.30;;;5.22;;
75499;SDS011;64076;51.466;7.260;2024-01-30T06:35:00;6.50;;;5.57;;
75499;SDS011;64076;51.466;7.260;2024-01-30T06:37:27;6.47;;;5.20;;
75499;SDS011;64076;51.466;7.260;2024-01-30T06:39:52;5.57;;;5.00;;
75499;SDS011;64076;51.466;7.260;2024-01-30T06:42:18;5.13;;;4.60;;
75499;SDS011;64076;51.466;7.260;2024-01-30T06:44:43;5.73;;;4.70;;
75499;SDS011;64076;51.466;7.260;2024-01-30T06:47:09;4.80;;;4.40;;
75499;SDS011;64076;51.466;7.260;2024-01-30T06:49:38;4.20;;;3.80;;
75499;SDS011;64076;51.466;7.260;2024-01-30T06:52:07;4.27;;;3.67;;
75499;SDS011;64076;51.466;7.260;2024-01-30T06:54:33;4.57;;;3.80;;
75499;SDS011;64076;51.466;7.260;2024-01-30T06:57:02;4.15;;;3.72;;
75499;SDS011;64076;51.466;7.260;2024-01-30T06:59:28;3.90;;;3.50;;
75499;SDS011;64076;51.466;7.260;2024-01-30T07:01:53;4.10;;;3.40;;
75499;SDS011;64076;51.466;7.260;2024-01-30T07:04:19;4.30;;;3.30;;
75499;SDS011;64076;51.466;7.260;2024-01-30T07:06:44;4.03;;;3.55;;
75499;SDS011;64076;51.466;7.260;2024-01-30T07:09:10;4.27;;;3.27;;
75499;SDS011;64076;51.466;7.260;2024-01-30T07:11:35;3.90;;;3.47;;
75499;SDS011;64076;51.466;7.260;2024-01-30T07:14:01;4.33;;;3.50;;
75499;SDS011;64076;51.466;7.260;2024-01-30T07:16:29;3.83;;;3.42;;
75499;SDS011;64076;51.466;7.260;2024-01-30T07:18:55;3.77;;;2.90;;
75499;SDS011;64076;51.466;7.260;2024-01-30T07:21:21;3.35;;;3.05;;
75499;SDS011;64076;51.466;7.260;2024-01-30T07:23:52;3.75;;;3.20;;
75499;SDS011;64076;51.466;7.260;2024-01-30T07:26:18;3.50;;;3.00;;
75499;SDS011;64076;51.466;7.260;2024-01-30T07:28:44;3.28;;;2.97;;
75499;SDS011;64076;51.466;7.260;2024-01-30T07:31:10;3.30;;;3.00;;
75499;SDS011;64076;51.466;7.260;2024-01-30T07:33:35;3.63;;;3.17;;
75499;SDS011;64076;51.466;7.260;2024-01-30T07:36:01;3.50;;;3.20;;
75499;SDS011;64076;51.466;7.260;2024-01-30T07:38:26;3.63;;;3.17;;
75499;SDS011;64076;51.466;7.260;2024-01-30T07:40:52;3.95;;;3.20;;
75499;SDS011;64076;51.466;7.260;2024-01-30T07:43:17;4.00;;;3.23;;
75499;SDS011;64076;51.466;7.260;2024-01-30T07:45:45;3.28;;;2.75;;
75499;SDS011;64076;51.466;7.260;2024-01-30T07:48:10;3.70;;;3.23;;
75499;SDS011;64076;51.466;7.260;2024-01-30T07:50:36;3.70;;;3.30;;
75499;SDS011;64076;51.466;7.260;2024-01-30T07:53:01;3.80;;;3.40;;
75499;SDS011;64076;51.466;7.260;2024-01-30T07:55:27;3.73;;;3.10;;
75499;SDS011;64076;51.466;7.260;2024-01-30T07:57:54;4.17;;;3.53;;
75499;SDS011;64076;51.466;7.260;2024-01-30T08:00:20;4.28;;;3.42;;
75499;SDS011;64076;51.466;7.260;2024-01-30T08:02:46;3.58;;;3.13;;
75499;SDS011;64076;51.466;7.260;2024-01-30T08:05:12;3.90;;;3.30;;
75499;SDS011;64076;51.466;7.260;2024-01-30T08:07:40;3.50;;;3.00;;
75499;SDS011;64076;51.466;7.260;2024-01-30T08:10:09;3.80;;;3.40;;
75499;SDS011;64076;51.466;7.260;2024-01-30T08:12:36;3.97;;;3.05;;
75499;SDS011;64076;51.466;7.260;2024-01-30T08:15:02;3.93;;;3.27;;
75499;SDS011;64076;51.466;7.260;2024-01-30T08:17:28;4.27;;;3.60;;
75499;SDS011;64076;51.466;7.260;2024-01-30T08:19:53;3.95;;;3.20;;
75499;SDS011;64076;51.466;7.260;2024-01-30T08:22:19;4.20;;;3.20;;
75499;SDS011;64076;51.466;7.260;2024-01-30T08:24:44;3.53;;;2.90;;
75499;SDS011;64076;51.466;7.260;2024-01-30T08:27:10;4.15;;;3.08;;
75499;SDS011;64076;51.466;7.260;2024-01-30T08:29:37;3.38;;;2.95;;
75499;SDS011;64076;51.466;7.260;2024-01-30T08:32:03;3.53;;;2.83;;
75499;SDS011;64076;51.466;7.260;2024-01-30T08:34:30;3.88;;;3.25;;
75499;SDS011;64076;51.466;7.260;2024-01-30T08:36:55;3.70;;;3.17;;
75499;SDS011;64076;51.466;7.260;2024-01-30T08:39:21;3.70;;;3.10;;
75499;SDS011;64076;51.466;7.260;2024-01-30T08:41:46;3.57;;;2.83;;
75499;SDS011;64076;51.466;7.260;2024-01-30T08:44:12;3.30;;;2.83;;
75499;SDS011;64076;51.466;7.260;2024-01-30T08:46:37;3.60;;;3.20;;
75499;SDS011;64076;51.466;7.260;2024-01-30T08:49:03;3.37;;;3.07;;
75499;SDS011;64076;51.466;7.260;2024-01-30T08:51:31;3.50;;;3.05;;
75499;SDS011;64076;51.466;7.260;2024-01-30T08:53:57;4.00;;;3.00;;
75499;SDS011;64076;51.466;7.260;2024-01-30T08:56:22;3.37;;;2.80;;
75499;SDS011;64076;51.466;7.260;2024-01-30T08:58:48;3.10;;;2.75;;
75499;SDS011;64076;51.466;7.260;2024-01-30T09:01:14;3.80;;;3.30;;
75499;SDS011;64076;51.466;7.260;2024-01-30T09:03:39;4.00;;;3.00;;
75499;SDS011;64076;51.466;7.260;2024-01-30T09:06:09;3.20;;;2.70;;
75499;SDS011;64076;51.466;7.260;2024-01-30T09:08:35;3.05;;;2.70;;
75499;SDS011;64076;51.466;7.260;2024-01-30T09:11:01;4.03;;;2.83;;
75499;SDS011;64076;51.466;7.260;2024-01-30T09:13:33;3.33;;;2.78;;
75499;SDS011;64076;51.466;7.260;2024-01-30T09:15:58;3.42;;;2.80;;
75499;SDS011;64076;51.466;7.260;2024-01-30T09:18:24;3.70;;;2.60;;
75499;SDS011;64076;51.466;7.260;2024-01-30T09:20:49;3.57;;;2.83;;
75499;SDS011;64076;51.466;7.260;2024-01-30T09:23:15;4.30;;;2.60;;
75499;SDS011;64076;51.466;7.260;2024-01-30T09:25:40;3.60;;;2.55;;
75499;SDS011;64076;51.466;7.260;2024-01-30T09:28:06;3.73;;;2.50;;
75499;SDS011;64076;51.466;7.260;2024-01-30T09:30:31;3.72;;;2.55;;
75499;SDS011;64076;51.466;7.260;2024-01-30T09:32:57;2.80;;;2.20;;
75499;SDS011;64076;51.466;7.260;2024-01-30T09:35:22;3.00;;;2.33;;
75499;SDS011;64076;51.466;7.260;2024-01-30T09:37:48;3.03;;;2.55;;
75499;SDS011;64076;51.466;7.260;2024-01-30T09:40:14;4.80;;;2.20;;
75499;SDS011;64076;51.466;7.260;2024-01-30T09:42:43;2.38;;;1.85;;
75499;SDS011;64076;51.466;7.260;2024-01-30T09:45:13;3.28;;;2.03;;
75499;SDS011;64076;51.466;7.260;2024-01-30T09:47:43;2.60;;;1.70;;
75499;SDS011;64076;51.466;7.260;2024-01-30T09:50:13;5.63;;;2.00;;
75499;SDS011;64076;51.466;7.260;2024-01-30T09:52:40;3.22;;;2.00;;
75499;SDS011;64076;51.466;7.260;2024-01-30T09:55:06;6.72;;;1.83;;
75499;SDS011;64076;51.466;7.260;2024-01-30T09:57:32;2.78;;;2.00;;
75499;SDS011;64076;51.466;7.260;2024-01-30T10:00:02;3.40;;;2.07;;
75499;SDS011;64076;51.466;7.260;2024-01-30T10:02:30;6.72;;;2.50;;
75499;SDS011;64076;51.466;7.260;2024-01-30T10:04:57;5.65;;;2.08;;
75499;SDS011;64076;51.466;7.260;2024-01-30T10:07:22;9.73;;;2.30;;
75499;SDS011;64076;51.466;7.260;2024-01-30T10:09:48;6.17;;;2.20;;
75499;SDS011;64076;51.466;7.260;2024-01-30T10:12:14;6.45;;;2.13;;
75499;SDS011;64076;51.466;7.260;2024-01-30T10:14:41;6.20;;;2.50;;
75499;SDS011;64076;51.466;7.260;2024-01-30T10:17:07;5.73;;;2.10;;
75499;SDS011;64076;51.466;7.260;2024-01-30T10:19:34;7.18;;;2.08;;
75499;SDS011;64076;51.466;7.260;2024-01-30T10:22:00;3.65;;;1.92;;
75499;SDS011;64076;51.466;7.260;2024-01-30T10:24:29;3.50;;;2.05;;
75499;SDS011;64076;51.466;7.260;2024-01-30T10:26:58;5.00;;;1.90;;
75499;SDS011;64076;51.466;7.260;2024-01-30T10:29:24;5.33;;;1.90;;
75499;SDS011;64076;51.466;7.260;2024-01-30T10:32:02;4.57;;;1.83;;
75499;SDS011;64076;51.466;7.260;2024-01-30T10:34:29;2.78;;;1.73;;
75499;SDS011;64076;51.466;7.260;2024-01-30T10:37:10;4.43;;;1.85;;
75499;SDS011;64076;51.466;7.260;2024-01-30T10:39:43;5.93;;;2.10;;
75499;SDS011;64076;51.466;7.260;2024-01-30T10:42:16;9.10;;;2.17;;
75499;SDS011;64076;51.466;7.260;2024-01-30T10:47:49;4.32;;;1.90;;
75499;SDS011;64076;51.466;7.260;2024-01-30T10:50:15;3.22;;;1.75;;
75499;SDS011;64076;51.466;7.260;2024-01-30T10:52:41;4.55;;;1.75;;
75499;SDS011;64076;51.466;7.260;2024-01-30T10:55:08;4.68;;;2.40;;
75499;SDS011;64076;51.466;7.260;2024-01-30T10:57:34;3.43;;;2.20;;
75499;SDS011;64076;51.466;7.260;2024-01-30T11:00:04;3.78;;;2.00;;
75499;SDS011;64076;51.466;7.260;2024-01-30T11:02:36;4.95;;;2.20;;
75499;SDS011;64076;51.466;7.260;2024-01-30T11:05:07;5.32;;;2.08;;
75499;SDS011;64076;51.466;7.260;2024-01-30T11:07:34;4.47;;;1.92;;
75499;SDS011;64076;51.466;7.260;2024-01-30T11:10:02;2.27;;;1.70;;
75499;SDS011;64076;51.466;7.260;2024-01-30T11:12:29;4.97;;;2.00;;
75499;SDS011;64076;51.466;7.260;2024-01-30T11:23:10;3.83;;;2.30;;
75499;SDS011;64076;51.466;7.260;2024-01-30T11:25:37;5.63;;;2.17;;
75499;SDS011;64076;51.466;7.260;2024-01-30T11:28:03;3.70;;;2.35;;
75499;SDS011;64076;51.466;7.260;2024-01-30T11:30:29;3.07;;;2.30;;
75499;SDS011;64076;51.466;7.260;2024-01-30T11:35:32;3.20;;;2.10;;
75499;SDS011;64076;51.466;7.260;2024-01-30T11:37:59;3.95;;;2.20;;
75499;SDS011;64076;51.466;7.260;2024-01-30T11:40:29;4.03;;;2.27;;
75499;SDS011;64076;51.466;7.260;2024-01-30T11:42:56;6.10;;;2.38;;
75499;SDS011;64076;51.466;7.260;2024-01-30T11:45:22;5.55;;;2.10;;
75499;SDS011;64076;51.466;7.260;2024-01-30T11:47:48;5.70;;;1.83;;
75499;SDS011;64076;51.466;7.260;2024-01-30T11:50:14;7.25;;;2.53;;
75499;SDS011;64076;51.466;7.260;2024-01-30T11:52:40;4.20;;;2.00;;
75499;SDS011;64076;51.466;7.260;2024-01-30T11:55:06;4.20;;;1.70;;
75499;SDS011;64076;51.466;7.260;2024-01-30T11:57:33;3.85;;;1.90;;
75499;SDS011;64076;51.466;7.260;2024-01-30T12:00:00;3.33;;;1.60;;
75499;SDS011;64076;51.466;7.260;2024-01-30T12:02:26;6.72;;;1.73;;
75499;SDS011;64076;51.466;7.260;2024-01-30T12:04:52;4.50;;;1.90;;
75499;SDS011;64076;51.466;7.260;2024-01-30T12:07:17;2.80;;;1.67;;
75499;SDS011;64076;51.466;7.260;2024-01-30T12:09:51;4.63;;;1.83;;
75499;SDS011;64076;51.466;7.260;2024-01-30T12:12:19;3.03;;;1.80;;
75499;SDS011;64076;51.466;7.260;2024-01-30T12:14:46;2.80;;;1.80;;
75499;SDS011;64076;51.466;7.260;2024-01-30T12:17:22;4.73;;;2.23;;
75499;SDS011;64076;51.466;7.260;2024-01-30T12:22:37;3.42;;;2.00;;
75499;SDS011;64076;51.466;7.260;2024-01-30T12:25:10;4.43;;;1.90;;
75499;SDS011;64076;51.466;7.260;2024-01-30T12:27:42;3.20;;;2.03;;
75499;SDS011;64076;51.466;7.260;2024-01-30T12:30:12;3.03;;;1.80;;
75499;SDS011;64076;51.466;7.260;2024-01-30T12:32:43;4.10;;;1.70;;
75499;SDS011;64076;51.466;7.260;2024-01-30T12:35:10;4.82;;;2.13;;
75499;SDS011;64076;51.466;7.260;2024-01-30T12:37:36;3.22;;;2.08;;
75499;SDS011;64076;51.466;7.260;2024-01-30T12:40:02;2.30;;;1.90;;
75499;SDS011;64076;51.466;7.260;2024-01-30T12:42:28;3.20;;;1.97;;
75499;SDS011;64076;51.466;7.260;2024-01-30T12:44:54;3.75;;;2.03;;
75499;SDS011;64076;51.466;7.260;2024-01-30T12:47:22;4.05;;;2.20;;
75499;SDS011;64076;51.466;7.260;2024-01-30T12:49:47;3.33;;;1.93;;
75499;SDS011;64076;51.466;7.260;2024-01-30T12:52:14;4.90;;;2.23;;
75499;SDS011;64076;51.466;7.260;2024-01-30T12:54:41;5.95;;;2.30;;
75499;SDS011;64076;51.466;7.260;2024-01-30T12:57:07;11.25;;;2.92;;
75499;SDS011;64076;51.466;7.260;2024-01-30T12:59:32;6.20;;;2.40;;
75499;SDS011;64076;51.466;7.260;2024-01-30T13:01:59;6.55;;;2.00;;
75499;SDS011;64076;51.466;7.260;2024-01-30T13:04:25;7.47;;;2.17;;
75499;SDS011;64076;51.466;7.260;2024-01-30T13:06:52;6.40;;;2.00;;
75499;SDS011;64076;51.466;7.260;2024-01-30T13:09:17;6.38;;;2.05;;
75499;SDS011;64076;51.466;7.260;2024-01-30T13:11:43;9.73;;;2.13;;
75499;SDS011;64076;51.466;7.260;2024-01-30T13:14:08;4.65;;;2.00;;
75499;SDS011;64076;51.466;7.260;2024-01-30T13:16:34;4.47;;;2.27;;
75499;SDS011;64076;51.466;7.260;2024-01-30T13:18:59;3.57;;;2.20;;
75499;SDS011;64076;51.466;7.260;2024-01-30T13:21:26;4.07;;;2.30;;
75499;SDS011;64076;51.466;7.260;2024-01-30T13:23:53;8.73;;;2.15;;
75499;SDS011;64076;51.466;7.260;2024-01-30T13:26:19;14.00;;;2.85;;
75499;SDS011;64076;51.466;7.260;2024-01-30T13:28:45;5.77;;;2.53;;
75499;SDS011;64076;51.466;7.260;2024-01-30T13:31:11;5.50;;;2.60;;
75499;SDS011;64076;51.466;7.260;2024-01-30T13:33:38;8.30;;;2.95;;
75499;SDS011;64076;51.466;7.260;2024-01-30T13:36:03;5.57;;;2.40;;
75499;SDS011;64076;51.466;7.260;2024-01-30T13:38:29;2.80;;;2.30;;
75499;SDS011;64076;51.466;7.260;2024-01-30T13:40:54;3.83;;;2.47;;
75499;SDS011;64076;51.466;7.260;2024-01-30T13:43:20;3.30;;;2.50;;
75499;SDS011;64076;51.466;7.260;2024-01-30T13:45:45;5.45;;;2.30;;
75499;SDS011;64076;51.466;7.260;2024-01-30T13:48:11;3.53;;;2.27;;
75499;SDS011;64076;51.466;7.260;2024-01-30T13:50:37;3.60;;;2.50;;
75499;SDS011;64076;51.466;7.260;2024-01-30T13:53:02;3.88;;;2.60;;
75499;SDS011;64076;51.466;7.260;2024-01-30T13:55:29;4.22;;;2.45;;
75499;SDS011;64076;51.466;7.260;2024-01-30T13:57:55;35.83;;;3.80;;
75499;SDS011;64076;51.466;7.260;2024-01-30T14:00:21;6.88;;;2.45;;
75499;SDS011;64076;51.466;7.260;2024-01-30T14:02:48;14.55;;;2.85;;
75499;SDS011;64076;51.466;7.260;2024-01-30T14:05:14;5.57;;;2.50;;
75499;SDS011;64076;51.466;7.260;2024-01-30T14:07:40;4.32;;;2.40;;
75499;SDS011;64076;51.466;7.260;2024-01-30T14:10:08;4.22;;;2.40;;
75499;SDS011;64076;51.466;7.260;2024-01-30T14:12:36;4.13;;;2.70;;
75499;SDS011;64076;51.466;7.260;2024-01-30T14:15:01;4.13;;;2.43;;
75499;SDS011;64076;51.466;7.260;2024-01-30T14:17:27;4.32;;;2.45;;
75499;SDS011;64076;51.466;7.260;2024-01-30T14:19:52;5.40;;;2.40;;
75499;SDS011;64076;51.466;7.260;2024-01-30T14:22:18;4.00;;;2.50;;
75499;SDS011;64076;51.466;7.260;2024-01-30T14:24:44;2.92;;;2.35;;
75499;SDS011;64076;51.466;7.260;2024-01-30T14:27:09;4.73;;;2.50;;
75499;SDS011;64076;51.466;7.260;2024-01-30T14:29:35;5.10;;;2.30;;
75499;SDS011;64076;51.466;7.260;2024-01-30T14:32:01;4.00;;;2.60;;
75499;SDS011;64076;51.466;7.260;2024-01-30T14:34:27;4.95;;;2.72;;
75499;SDS011;64076;51.466;7.260;2024-01-30T14:36:52;3.43;;;2.43;;
75499;SDS011;64076;51.466;7.260;2024-01-30T14:39:18;4.55;;;2.35;;
75499;SDS011;64076;51.466;7.260;2024-01-30T14:41:43;4.23;;;2.47;;
75499;SDS011;64076;51.466;7.260;2024-01-30T14:44:09;3.63;;;2.50;;
75499;SDS011;64076;51.466;7.260;2024-01-30T14:46:35;7.67;;;2.50;;
75499;SDS011;64076;51.466;7.260;2024-01-30T14:49:02;15.35;;;2.63;;
75499;SDS011;64076;51.466;7.260;2024-01-30T14:51:32;7.67;;;2.73;;
75499;SDS011;64076;51.466;7.260;2024-01-30T14:53:58;4.28;;;2.58;;
75499;SDS011;64076;51.466;7.260;2024-01-30T14:56:25;29.73;;;3.88;;
75499;SDS011;64076;51.466;7.260;2024-01-30T14:58:51;34.33;;;4.53;;